sensor_id;sensor_type;location;lat;lon;timestamp;P1;durP1;ratioP1;P2;durP2;ratioP2
11943;SDS011;6031;50.220;10.122;2023-05-17T00:02:22;0.87;;;0.87;;
11943;SDS011;6031;50.220;10.122;2023-05-17T00:04:48;2.17;;;1.37;;
11943;SDS011;6031;50.220;10.122;2023-05-17T00:07:13;4.73;;;1.07;;
11943;SDS011;6031;50.220;10.122;2023-05-17T00:09:39;1.07;;;0.90;;
11943;SDS011;6031;50.220;10.122;2023-05-17T00:12:04;1.80;;;1.20;;
11943;SDS011;6031;50.220;10.122;2023-05-17T00:14:30;1.93;;;1.17;;
11943;SDS011;6031;50.220;10.122;2023-05-17T00:16:55;1.67;;;1.07;;
11943;SDS011;6031;50.220;10.122;2023-05-17T00:19:21;2.27;;;1.30;;
11943;SDS011;6031;50.220;10.122;2023-05-17T00:21:46;1.63;;;1.00;;
11943;SDS011;6031;50.220;10.122;2023-05-17T00:24:12;1.17;;;1.07;;
11943;SDS011;6031;50.220;10.122;2023-05-17T00:26:37;2.40;;;1.40;;
11943;SDS011;6031;50.220;10.122;2023-05-17T00:29:03;1.57;;;1.20;;
11943;SDS011;6031;50.220;10.122;2023-05-17T00:31:29;2.43;;;1.20;;
11943;SDS011;6031;50.220;10.122;2023-05-17T00:33:55;1.40;;;0.83;;
11943;SDS011;6031;50.220;10.122;2023-05-17T00:36:20;4.00;;;1.10;;
11943;SDS011;6031;50.220;10.122;2023-05-17T00:38:46;1.87;;;1.57;;
11943;SDS011;6031;50.220;10.122;2023-05-17T00:41:11;2.63;;;1.10;;
11943;SDS011;6031;50.220;10.122;2023-05-17T00:43:37;1.00;;;1.00;;
11943;SDS011;6031;50.220;10.122;2023-05-17T00:46:03;1.80;;;1.50;;
11943;SDS011;6031;50.220;10.122;2023-05-17T00:48:28;1.73;;;1.23;;
11943;SDS011;6031;50.220;10.122;2023-05-17T00:50:55;4.20;;;1.73;;
11943;SDS011;6031;50.220;10.122;2023-05-17T00:53:22;2.13;;;1.20;;
11943;SDS011;6031;50.220;10.122;2023-05-17T00:55:48;2.33;;;1.20;;
11943;SDS011;6031;50.220;10.122;2023-05-17T00:58:13;1.97;;;1.20;;
11943;SDS011;6031;50.220;10.122;2023-05-17T01:00:40;1.43;;;1.33;;
11943;SDS011;6031;50.220;10.122;2023-05-17T01:03:06;1.93;;;1.13;;
11943;SDS011;6031;50.220;10.122;2023-05-17T01:05:32;2.83;;;1.03;;
11943;SDS011;6031;50.220;10.122;2023-05-17T01:08:54;3.00;;;1.37;;
11943;SDS011;6031;50.220;10.122;2023-05-17T01:11:41;3.03;;;1.40;;
11943;SDS011;6031;50.220;10.122;2023-05-17T01:17:03;3.30;;;1.17;;
11943;SDS011;6031;50.220;10.122;2023-05-17T01:22:26;3.20;;;1.80;;
11943;SDS011;6031;50.220;10.122;2023-05-17T01:27:32;1.73;;;1.20;;
11943;SDS011;6031;50.220;10.122;2023-05-17T01:30:00;1.70;;;1.40;;
11943;SDS011;6031;50.220;10.122;2023-05-17T01:32:26;1.80;;;1.70;;
11943;SDS011;6031;50.220;10.122;2023-05-17T01:34:52;4.07;;;1.83;;
11943;SDS011;6031;50.220;10.122;2023-05-17T01:37:18;2.53;;;1.83;;
11943;SDS011;6031;50.220;10.122;2023-05-17T01:39:43;4.37;;;2.43;;
11943;SDS011;6031;50.220;10.122;2023-05-17T01:42:14;3.43;;;1.93;;
11943;SDS011;6031;50.220;10.122;2023-05-17T01:45:02;2.30;;;1.77;;
11943;SDS011;6031;50.220;10.122;2023-05-17T01:47:40;5.83;;;2.27;;
11943;SDS011;6031;50.220;10.122;2023-05-17T01:50:28;4.13;;;2.20;;
11943;SDS011;6031;50.220;10.122;2023-05-17T01:52:59;4.37;;;2.00;;
11943;SDS011;6031;50.220;10.122;2023-05-17T01:55:33;3.33;;;1.97;;
11943;SDS011;6031;50.220;10.122;2023-05-17T01:58:09;3.70;;;2.10;;
11943;SDS011;6031;50.220;10.122;2023-05-17T02:00:37;3.10;;;2.20;;
11943;SDS011;6031;50.220;10.122;2023-05-17T02:03:05;4.17;;;1.70;;
11943;SDS011;6031;50.220;10.122;2023-05-17T02:05:30;4.27;;;1.97;;
11943;SDS011;6031;50.220;10.122;2023-05-17T02:07:56;2.50;;;1.77;;
11943;SDS011;6031;50.220;10.122;2023-05-17T02:10:21;2.33;;;1.63;;
11943;SDS011;6031;50.220;10.122;2023-05-17T02:12:47;2.80;;;1.83;;
11943;SDS011;6031;50.220;10.122;2023-05-17T02:15:12;4.27;;;2.13;;
11943;SDS011;6031;50.220;10.122;2023-05-17T02:17:40;4.07;;;1.67;;
11943;SDS011;6031;50.220;10.122;2023-05-17T02:20:06;5.37;;;1.47;;
11943;SDS011;6031;50.220;10.122;2023-05-17T02:22:33;1.70;;;1.50;;
11943;SDS011;6031;50.220;10.122;2023-05-17T02:24:58;4.83;;;1.43;;
11943;SDS011;6031;50.220;10.122;2023-05-17T02:27:24;3.60;;;1.97;;
11943;SDS011;6031;50.220;10.122;2023-05-17T02:29:49;2.73;;;2.03;;
11943;SDS011;6031;50.220;10.122;2023-05-17T02:32:15;4.47;;;1.60;;
11943;SDS011;6031;50.220;10.122;2023-05-17T02:34:40;3.30;;;1.50;;
11943;SDS011;6031;50.220;10.122;2023-05-17T02:37:06;2.63;;;1.63;;
11943;SDS011;6031;50.220;10.122;2023-05-17T02:39:32;3.07;;;1.83;;
11943;SDS011;6031;50.220;10.122;2023-05-17T02:41:57;1.50;;;1.40;;
11943;SDS011;6031;50.220;10.122;2023-05-17T02:44:23;2.67;;;1.93;;
11943;SDS011;6031;50.220;10.122;2023-05-17T02:46:48;5.40;;;1.40;;
11943;SDS011;6031;50.220;10.122;2023-05-17T02:49:14;2.93;;;1.60;;
11943;SDS011;6031;50.220;10.122;2023-05-17T02:51:39;3.67;;;2.30;;
11943;SDS011;6031;50.220;10.122;2023-05-17T02:54:05;5.23;;;1.57;;
11943;SDS011;6031;50.220;10.122;2023-05-17T02:56:30;1.60;;;1.50;;
11943;SDS011;6031;50.220;10.122;2023-05-17T02:58:56;3.17;;;1.83;;
11943;SDS011;6031;50.220;10.122;2023-05-17T03:01:25;1.63;;;1.37;;
11943;SDS011;6031;50.220;10.122;2023-05-17T03:03:51;5.73;;;2.00;;
11943;SDS011;6031;50.220;10.122;2023-05-17T03:06:16;4.47;;;1.90;;
11943;SDS011;6031;50.220;10.122;2023-05-17T03:08:41;2.30;;;1.90;;
11943;SDS011;6031;50.220;10.122;2023-05-17T03:11:07;2.40;;;2.00;;
11943;SDS011;6031;50.220;10.122;2023-05-17T03:13:32;4.23;;;2.17;;
11943;SDS011;6031;50.220;10.122;2023-05-17T03:15:58;2.00;;;1.80;;
11943;SDS011;6031;50.220;10.122;2023-05-17T03:18:23;1.70;;;1.53;;
11943;SDS011;6031;50.220;10.122;2023-05-17T03:20:49;2.73;;;2.10;;
11943;SDS011;6031;50.220;10.122;2023-05-17T03:23:15;2.10;;;1.73;;
11943;SDS011;6031;50.220;10.122;2023-05-17T03:25:40;3.53;;;2.27;;
11943;SDS011;6031;50.220;10.122;2023-05-17T03:28:06;4.47;;;2.00;;
11943;SDS011;6031;50.220;10.122;2023-05-17T03:30:31;3.37;;;2.00;;
11943;SDS011;6031;50.220;10.122;2023-05-17T03:32:57;1.70;;;1.60;;
11943;SDS011;6031;50.220;10.122;2023-05-17T03:35:22;2.43;;;2.23;;
11943;SDS011;6031;50.220;10.122;2023-05-17T03:37:48;3.57;;;1.70;;
11943;SDS011;6031;50.220;10.122;2023-05-17T03:40:13;5.80;;;2.03;;
11943;SDS011;6031;50.220;10.122;2023-05-17T03:42:39;14.33;;;8.27;;
11943;SDS011;6031;50.220;10.122;2023-05-17T03:45:05;9.73;;;5.87;;
11943;SDS011;6031;50.220;10.122;2023-05-17T03:47:31;7.30;;;3.70;;
11943;SDS011;6031;50.220;10.122;2023-05-17T03:49:56;7.47;;;4.60;;
11943;SDS011;6031;50.220;10.122;2023-05-17T03:52:22;7.23;;;4.67;;
11943;SDS011;6031;50.220;10.122;2023-05-17T03:54:47;6.00;;;3.90;;
11943;SDS011;6031;50.220;10.122;2023-05-17T03:57:13;8.90;;;4.10;;
11943;SDS011;6031;50.220;10.122;2023-05-17T03:59:38;4.17;;;2.50;;
11943;SDS011;6031;50.220;10.122;2023-05-17T04:02:04;2.90;;;2.27;;
11943;SDS011;6031;50.220;10.122;2023-05-17T04:04:30;3.40;;;2.80;;
11943;SDS011;6031;50.220;10.122;2023-05-17T04:06:56;3.00;;;2.30;;
11943;SDS011;6031;50.220;10.122;2023-05-17T04:09:21;4.33;;;2.30;;
11943;SDS011;6031;50.220;10.122;2023-05-17T04:11:47;10.30;;;3.97;;
11943;SDS011;6031;50.220;10.122;2023-05-17T04:14:12;4.90;;;3.17;;
11943;SDS011;6031;50.220;10.122;2023-05-17T04:16:38;3.33;;;2.90;;
11943;SDS011;6031;50.220;10.122;2023-05-17T04:19:04;6.47;;;3.37;;
11943;SDS011;6031;50.220;10.122;2023-05-17T04:21:30;5.20;;;3.10;;
11943;SDS011;6031;50.220;10.122;2023-05-17T04:23:56;5.30;;;3.40;;
11943;SDS011;6031;50.220;10.122;2023-05-17T04:26:22;4.33;;;2.80;;
11943;SDS011;6031;50.220;10.122;2023-05-17T04:28:47;4.50;;;2.50;;
11943;SDS011;6031;50.220;10.122;2023-05-17T04:31:14;3.03;;;2.23;;
11943;SDS011;6031;50.220;10.122;2023-05-17T04:33:43;3.90;;;3.00;;
11943;SDS011;6031;50.220;10.122;2023-05-17T04:36:08;4.93;;;2.60;;
11943;SDS011;6031;50.220;10.122;2023-05-17T04:38:34;3.97;;;3.00;;
11943;SDS011;6031;50.220;10.122;2023-05-17T04:41:00;5.07;;;2.83;;
11943;SDS011;6031;50.220;10.122;2023-05-17T04:43:30;3.53;;;3.03;;
11943;SDS011;6031;50.220;10.122;2023-05-17T04:45:56;6.33;;;3.53;;
11943;SDS011;6031;50.220;10.122;2023-05-17T04:48:23;4.10;;;3.00;;
11943;SDS011;6031;50.220;10.122;2023-05-17T04:50:50;4.40;;;3.63;;
11943;SDS011;6031;50.220;10.122;2023-05-17T04:53:15;6.17;;;3.23;;
11943;SDS011;6031;50.220;10.122;2023-05-17T04:55:41;5.20;;;3.50;;
11943;SDS011;6031;50.220;10.122;2023-05-17T04:58:07;5.57;;;3.30;;
11943;SDS011;6031;50.220;10.122;2023-05-17T05:00:33;5.50;;;2.93;;
11943;SDS011;6031;50.220;10.122;2023-05-17T05:02:59;7.50;;;3.00;;
11943;SDS011;6031;50.220;10.122;2023-05-17T05:05:24;5.53;;;3.10;;
11943;SDS011;6031;50.220;10.122;2023-05-17T05:07:50;4.03;;;2.80;;
11943;SDS011;6031;50.220;10.122;2023-05-17T05:10:16;5.80;;;3.37;;
11943;SDS011;6031;50.220;10.122;2023-05-17T05:12:41;7.13;;;4.67;;
11943;SDS011;6031;50.220;10.122;2023-05-17T05:15:08;7.77;;;4.10;;
11943;SDS011;6031;50.220;10.122;2023-05-17T05:17:34;5.60;;;3.70;;
11943;SDS011;6031;50.220;10.122;2023-05-17T05:20:00;7.20;;;3.87;;
11943;SDS011;6031;50.220;10.122;2023-05-17T05:22:26;4.50;;;2.90;;
11943;SDS011;6031;50.220;10.122;2023-05-17T05:24:51;4.57;;;3.03;;
11943;SDS011;6031;50.220;10.122;2023-05-17T05:27:17;5.23;;;3.47;;
11943;SDS011;6031;50.220;10.122;2023-05-17T05:29:42;3.73;;;3.33;;
11943;SDS011;6031;50.220;10.122;2023-05-17T05:32:08;9.47;;;3.40;;
11943;SDS011;6031;50.220;10.122;2023-05-17T05:34:33;3.37;;;3.00;;
11943;SDS011;6031;50.220;10.122;2023-05-17T05:36:59;3.73;;;3.00;;
11943;SDS011;6031;50.220;10.122;2023-05-17T05:39:24;4.93;;;3.27;;
11943;SDS011;6031;50.220;10.122;2023-05-17T05:41:51;3.60;;;3.30;;
11943;SDS011;6031;50.220;10.122;2023-05-17T05:44:17;4.03;;;2.53;;
11943;SDS011;6031;50.220;10.122;2023-05-17T05:46:43;3.23;;;2.70;;
11943;SDS011;6031;50.220;10.122;2023-05-17T05:49:08;4.67;;;2.90;;
11943;SDS011;6031;50.220;10.122;2023-05-17T05:51:34;4.60;;;3.00;;
11943;SDS011;6031;50.220;10.122;2023-05-17T05:54:00;5.50;;;2.80;;
11943;SDS011;6031;50.220;10.122;2023-05-17T05:56:25;5.87;;;2.83;;
11943;SDS011;6031;50.220;10.122;2023-05-17T05:58:52;6.63;;;3.00;;
11943;SDS011;6031;50.220;10.122;2023-05-17T06:01:21;2.83;;;1.97;;
11943;SDS011;6031;50.220;10.122;2023-05-17T06:03:46;5.93;;;3.10;;
11943;SDS011;6031;50.220;10.122;2023-05-17T06:06:12;6.10;;;2.90;;
11943;SDS011;6031;50.220;10.122;2023-05-17T06:08:40;3.33;;;2.53;;
11943;SDS011;6031;50.220;10.122;2023-05-17T06:11:06;4.53;;;3.00;;
11943;SDS011;6031;50.220;10.122;2023-05-17T06:13:31;5.70;;;2.77;;
11943;SDS011;6031;50.220;10.122;2023-05-17T06:15:56;3.33;;;2.60;;
11943;SDS011;6031;50.220;10.122;2023-05-17T06:18:23;6.17;;;2.33;;
11943;SDS011;6031;50.220;10.122;2023-05-17T06:20:49;6.07;;;2.60;;
11943;SDS011;6031;50.220;10.122;2023-05-17T06:23:14;6.03;;;3.10;;
11943;SDS011;6031;50.220;10.122;2023-05-17T06:25:40;4.30;;;3.33;;
11943;SDS011;6031;50.220;10.122;2023-05-17T06:28:06;8.57;;;2.93;;
11943;SDS011;6031;50.220;10.122;2023-05-17T06:30:33;4.50;;;2.53;;
11943;SDS011;6031;50.220;10.122;2023-05-17T06:32:58;3.40;;;2.73;;
11943;SDS011;6031;50.220;10.122;2023-05-17T06:35:24;6.40;;;2.40;;
11943;SDS011;6031;50.220;10.122;2023-05-17T06:37:49;4.13;;;3.10;;
11943;SDS011;6031;50.220;10.122;2023-05-17T06:40:15;4.57;;;2.53;;
11943;SDS011;6031;50.220;10.122;2023-05-17T06:42:40;7.20;;;2.80;;
11943;SDS011;6031;50.220;10.122;2023-05-17T06:45:06;4.07;;;2.20;;
11943;SDS011;6031;50.220;10.122;2023-05-17T06:47:32;5.87;;;2.70;;
11943;SDS011;6031;50.220;10.122;2023-05-17T06:49:57;4.50;;;2.40;;
11943;SDS011;6031;50.220;10.122;2023-05-17T06:52:23;5.47;;;2.70;;
11943;SDS011;6031;50.220;10.122;2023-05-17T06:54:49;3.43;;;2.37;;
11943;SDS011;6031;50.220;10.122;2023-05-17T06:57:16;5.73;;;2.97;;
11943;SDS011;6031;50.220;10.122;2023-05-17T06:59:42;4.83;;;2.83;;
11943;SDS011;6031;50.220;10.122;2023-05-17T07:02:07;5.90;;;2.63;;
11943;SDS011;6031;50.220;10.122;2023-05-17T07:04:33;3.70;;;2.70;;
11943;SDS011;6031;50.220;10.122;2023-05-17T07:06:59;3.90;;;2.83;;
11943;SDS011;6031;50.220;10.122;2023-05-17T07:09:25;4.17;;;3.07;;
11943;SDS011;6031;50.220;10.122;2023-05-17T07:11:50;3.87;;;2.93;;
11943;SDS011;6031;50.220;10.122;2023-05-17T07:14:16;3.30;;;2.93;;
11943;SDS011;6031;50.220;10.122;2023-05-17T07:16:41;3.80;;;2.70;;
11943;SDS011;6031;50.220;10.122;2023-05-17T07:19:07;5.03;;;2.67;;
11943;SDS011;6031;50.220;10.122;2023-05-17T07:21:32;6.23;;;2.80;;
11943;SDS011;6031;50.220;10.122;2023-05-17T07:23:58;4.60;;;2.60;;
11943;SDS011;6031;50.220;10.122;2023-05-17T07:26:23;4.20;;;3.10;;
11943;SDS011;6031;50.220;10.122;2023-05-17T07:28:49;5.80;;;2.57;;
11943;SDS011;6031;50.220;10.122;2023-05-17T07:31:15;5.13;;;2.80;;
11943;SDS011;6031;50.220;10.122;2023-05-17T07:33:41;5.43;;;3.07;;
11943;SDS011;6031;50.220;10.122;2023-05-17T07:36:07;5.57;;;2.40;;
11943;SDS011;6031;50.220;10.122;2023-05-17T07:38:32;4.97;;;2.70;;
11943;SDS011;6031;50.220;10.122;2023-05-17T07:41:01;5.17;;;2.70;;
11943;SDS011;6031;50.220;10.122;2023-05-17T07:43:28;3.53;;;3.00;;
11943;SDS011;6031;50.220;10.122;2023-05-17T07:45:53;3.60;;;2.50;;
11943;SDS011;6031;50.220;10.122;2023-05-17T07:48:19;5.90;;;3.07;;
11943;SDS011;6031;50.220;10.122;2023-05-17T07:50:44;4.93;;;2.77;;
11943;SDS011;6031;50.220;10.122;2023-05-17T07:53:10;6.33;;;2.60;;
11943;SDS011;6031;50.220;10.122;2023-05-17T07:55:36;6.57;;;2.70;;
11943;SDS011;6031;50.220;10.122;2023-05-17T07:58:01;5.73;;;2.90;;
11943;SDS011;6031;50.220;10.122;2023-05-17T08:00:27;4.70;;;2.80;;
11943;SDS011;6031;50.220;10.122;2023-05-17T08:02:53;4.53;;;3.00;;
11943;SDS011;6031;50.220;10.122;2023-05-17T08:05:18;6.50;;;2.70;;
11943;SDS011;6031;50.220;10.122;2023-05-17T08:07:44;6.00;;;2.60;;
11943;SDS011;6031;50.220;10.122;2023-05-17T08:10:09;5.90;;;2.87;;
11943;SDS011;6031;50.220;10.122;2023-05-17T08:12:35;6.00;;;3.07;;
11943;SDS011;6031;50.220;10.122;2023-05-17T08:15:01;3.77;;;2.83;;
11943;SDS011;6031;50.220;10.122;2023-05-17T08:17:26;6.23;;;3.10;;
11943;SDS011;6031;50.220;10.122;2023-05-17T08:19:52;4.77;;;2.90;;
11943;SDS011;6031;50.220;10.122;2023-05-17T08:22:18;4.40;;;3.30;;
11943;SDS011;6031;50.220;10.122;2023-05-17T08:24:43;5.23;;;2.60;;
11943;SDS011;6031;50.220;10.122;2023-05-17T08:27:09;7.50;;;2.77;;
11943;SDS011;6031;50.220;10.122;2023-05-17T08:29:35;3.80;;;2.50;;
11943;SDS011;6031;50.220;10.122;2023-05-17T08:32:01;4.50;;;2.83;;
11943;SDS011;6031;50.220;10.122;2023-05-17T08:34:27;6.00;;;2.70;;
11943;SDS011;6031;50.220;10.122;2023-05-17T08:36:52;3.97;;;2.20;;
11943;SDS011;6031;50.220;10.122;2023-05-17T08:39:18;3.53;;;2.47;;
11943;SDS011;6031;50.220;10.122;2023-05-17T08:41:45;3.90;;;2.60;;
11943;SDS011;6031;50.220;10.122;2023-05-17T08:44:12;4.13;;;2.73;;
11943;SDS011;6031;50.220;10.122;2023-05-17T08:46:40;3.00;;;2.50;;
11943;SDS011;6031;50.220;10.122;2023-05-17T08:49:08;4.33;;;2.70;;
11943;SDS011;6031;50.220;10.122;2023-05-17T08:51:36;4.23;;;2.53;;
11943;SDS011;6031;50.220;10.122;2023-05-17T08:54:03;8.07;;;3.87;;
11943;SDS011;6031;50.220;10.122;2023-05-17T08:56:32;6.33;;;3.77;;
11943;SDS011;6031;50.220;10.122;2023-05-17T08:59:00;5.67;;;3.03;;
11943;SDS011;6031;50.220;10.122;2023-05-17T09:01:29;6.47;;;3.73;;
11943;SDS011;6031;50.220;10.122;2023-05-17T09:03:55;8.63;;;3.67;;
11943;SDS011;6031;50.220;10.122;2023-05-17T09:06:21;8.83;;;3.10;;
11943;SDS011;6031;50.220;10.122;2023-05-17T09:08:50;5.90;;;3.70;;
11943;SDS011;6031;50.220;10.122;2023-05-17T09:11:23;3.80;;;2.90;;
11943;SDS011;6031;50.220;10.122;2023-05-17T09:13:50;5.63;;;2.37;;
11943;SDS011;6031;50.220;10.122;2023-05-17T09:16:16;7.30;;;3.07;;
11943;SDS011;6031;50.220;10.122;2023-05-17T09:18:51;8.00;;;4.17;;
11943;SDS011;6031;50.220;10.122;2023-05-17T09:21:18;4.20;;;2.33;;
11943;SDS011;6031;50.220;10.122;2023-05-17T09:23:45;3.07;;;2.70;;
11943;SDS011;6031;50.220;10.122;2023-05-17T09:26:11;3.00;;;2.47;;
11943;SDS011;6031;50.220;10.122;2023-05-17T09:28:38;3.17;;;2.63;;
11943;SDS011;6031;50.220;10.122;2023-05-17T09:31:05;4.20;;;2.60;;
11943;SDS011;6031;50.220;10.122;2023-05-17T09:33:32;5.63;;;3.00;;
11943;SDS011;6031;50.220;10.122;2023-05-17T09:35:57;4.37;;;2.57;;
11943;SDS011;6031;50.220;10.122;2023-05-17T09:38:24;4.97;;;2.17;;
11943;SDS011;6031;50.220;10.122;2023-05-17T09:40:51;3.10;;;2.63;;
11943;SDS011;6031;50.220;10.122;2023-05-17T09:43:21;4.47;;;2.27;;
11943;SDS011;6031;50.220;10.122;2023-05-17T09:45:54;3.23;;;2.17;;
11943;SDS011;6031;50.220;10.122;2023-05-17T09:48:20;6.43;;;2.83;;
11943;SDS011;6031;50.220;10.122;2023-05-17T09:50:47;3.77;;;2.33;;
11943;SDS011;6031;50.220;10.122;2023-05-17T09:53:31;3.83;;;2.50;;
11943;SDS011;6031;50.220;10.122;2023-05-17T09:56:03;2.87;;;2.10;;
11943;SDS011;6031;50.220;10.122;2023-05-17T09:58:32;3.50;;;2.53;;
11943;SDS011;6031;50.220;10.122;2023-05-17T10:01:00;3.30;;;2.53;;
11943;SDS011;6031;50.220;10.122;2023-05-17T10:03:34;3.40;;;2.10;;
11943;SDS011;6031;50.220;10.122;2023-05-17T10:06:01;3.53;;;2.40;;
11943;SDS011;6031;50.220;10.122;2023-05-17T10:08:30;3.23;;;2.37;;
11943;SDS011;6031;50.220;10.122;2023-05-17T10:10:58;2.20;;;2.00;;
11943;SDS011;6031;50.220;10.122;2023-05-17T10:13:32;6.50;;;2.70;;
11943;SDS011;6031;50.220;10.122;2023-05-17T10:16:00;4.10;;;1.97;;
11943;SDS011;6031;50.220;10.122;2023-05-17T10:18:26;4.00;;;2.40;;
11943;SDS011;6031;50.220;10.122;2023-05-17T10:20:53;3.97;;;2.50;;
11943;SDS011;6031;50.220;10.122;2023-05-17T10:23:20;4.43;;;2.23;;
11943;SDS011;6031;50.220;10.122;2023-05-17T10:25:46;4.90;;;2.10;;
11943;SDS011;6031;50.220;10.122;2023-05-17T10:28:13;3.77;;;1.93;;
11943;SDS011;6031;50.220;10.122;2023-05-17T10:30:41;4.57;;;2.17;;
11943;SDS011;6031;50.220;10.122;2023-05-17T10:33:07;2.93;;;2.37;;
11943;SDS011;6031;50.220;10.122;2023-05-17T10:35:35;4.97;;;2.53;;
11943;SDS011;6031;50.220;10.122;2023-05-17T10:38:02;5.07;;;2.13;;
11943;SDS011;6031;50.220;10.122;2023-05-17T10:40:28;3.43;;;2.70;;
11943;SDS011;6031;50.220;10.122;2023-05-17T10:42:54;7.03;;;2.73;;
11943;SDS011;6031;50.220;10.122;2023-05-17T10:45:22;6.70;;;2.40;;
11943;SDS011;6031;50.220;10.122;2023-05-17T10:47:52;3.43;;;2.10;;
11943;SDS011;6031;50.220;10.122;2023-05-17T10:50:22;2.90;;;2.33;;
11943;SDS011;6031;50.220;10.122;2023-05-17T10:52:49;4.70;;;2.33;;
11943;SDS011;6031;50.220;10.122;2023-05-17T10:55:19;4.17;;;2.13;;
11943;SDS011;6031;50.220;10.122;2023-05-17T11:00:41;3.20;;;2.40;;
11943;SDS011;6031;50.220;10.122;2023-05-17T11:03:20;4.20;;;2.33;;
11943;SDS011;6031;50.220;10.122;2023-05-17T11:08:34;3.77;;;2.53;;
11943;SDS011;6031;50.220;10.122;2023-05-17T11:11:09;4.03;;;2.10;;
11943;SDS011;6031;50.220;10.122;2023-05-17T11:13:53;2.47;;;2.27;;
11943;SDS011;6031;50.220;10.122;2023-05-17T11:16:20;4.63;;;2.40;;
11943;SDS011;6031;50.220;10.122;2023-05-17T11:18:51;4.03;;;2.80;;
11943;SDS011;6031;50.220;10.122;2023-05-17T11:21:19;3.10;;;2.57;;
11943;SDS011;6031;50.220;10.122;2023-05-17T11:23:46;5.07;;;2.50;;
11943;SDS011;6031;50.220;10.122;2023-05-17T11:26:18;3.33;;;2.07;;
11943;SDS011;6031;50.220;10.122;2023-05-17T11:28:47;7.30;;;2.63;;
11943;SDS011;6031;50.220;10.122;2023-05-17T11:31:29;4.53;;;2.30;;
11943;SDS011;6031;50.220;10.122;2023-05-17T11:33:56;5.63;;;2.10;;
11943;SDS011;6031;50.220;10.122;2023-05-17T11:36:22;5.17;;;2.37;;
11943;SDS011;6031;50.220;10.122;2023-05-17T11:39:10;4.10;;;2.20;;
11943;SDS011;6031;50.220;10.122;2023-05-17T11:41:36;5.00;;;2.77;;
11943;SDS011;6031;50.220;10.122;2023-05-17T11:44:05;4.03;;;2.47;;
11943;SDS011;6031;50.220;10.122;2023-05-17T11:46:31;3.03;;;2.13;;
11943;SDS011;6031;50.220;10.122;2023-05-17T11:48:57;4.90;;;2.20;;
11943;SDS011;6031;50.220;10.122;2023-05-17T11:51:24;4.67;;;2.40;;
11943;SDS011;6031;50.220;10.122;2023-05-17T11:53:50;3.00;;;2.20;;
11943;SDS011;6031;50.220;10.122;2023-05-17T11:56:19;4.53;;;2.30;;
11943;SDS011;6031;50.220;10.122;2023-05-17T11:58:46;4.60;;;2.50;;
11943;SDS011;6031;50.220;10.122;2023-05-17T12:01:16;4.63;;;2.53;;
11943;SDS011;6031;50.220;10.122;2023-05-17T12:03:42;5.27;;;3.80;;
11943;SDS011;6031;50.220;10.122;2023-05-17T12:06:08;4.83;;;2.50;;
11943;SDS011;6031;50.220;10.122;2023-05-17T12:08:38;3.90;;;2.00;;
11943;SDS011;6031;50.220;10.122;2023-05-17T12:11:09;6.07;;;2.43;;
11943;SDS011;6031;50.220;10.122;2023-05-17T12:13:39;4.13;;;2.17;;
11943;SDS011;6031;50.220;10.122;2023-05-17T12:16:14;2.57;;;2.37;;
11943;SDS011;6031;50.220;10.122;2023-05-17T12:18:41;5.47;;;2.67;;
11943;SDS011;6031;50.220;10.122;2023-05-17T12:21:08;11.43;;;5.13;;
11943;SDS011;6031;50.220;10.122;2023-05-17T12:23:37;4.40;;;2.60;;
11943;SDS011;6031;50.220;10.122;2023-05-17T12:26:14;3.40;;;2.20;;
11943;SDS011;6031;50.220;10.122;2023-05-17T12:28:41;4.97;;;2.10;;
11943;SDS011;6031;50.220;10.122;2023-05-17T12:31:28;4.90;;;2.20;;
11943;SDS011;6031;50.220;10.122;2023-05-17T12:33:59;4.13;;;2.73;;
11943;SDS011;6031;50.220;10.122;2023-05-17T12:36:28;6.07;;;2.50;;
11943;SDS011;6031;50.220;10.122;2023-05-17T12:38:57;4.33;;;2.40;;
11943;SDS011;6031;50.220;10.122;2023-05-17T12:41:23;4.83;;;3.10;;
11943;SDS011;6031;50.220;10.122;2023-05-17T12:43:52;3.77;;;2.10;;
11943;SDS011;6031;50.220;10.122;2023-05-17T12:46:18;3.23;;;2.00;;
11943;SDS011;6031;50.220;10.122;2023-05-17T12:48:47;4.23;;;2.50;;
11943;SDS011;6031;50.220;10.122;2023-05-17T12:51:18;3.20;;;1.83;;
11943;SDS011;6031;50.220;10.122;2023-05-17T12:56:14;4.40;;;2.37;;
11943;SDS011;6031;50.220;10.122;2023-05-17T12:58:41;5.37;;;2.53;;
11943;SDS011;6031;50.220;10.122;2023-05-17T13:01:07;4.03;;;2.17;;
11943;SDS011;6031;50.220;10.122;2023-05-17T13:03:38;5.10;;;2.33;;
11943;SDS011;6031;50.220;10.122;2023-05-17T13:06:05;2.00;;;1.70;;
11943;SDS011;6031;50.220;10.122;2023-05-17T13:08:33;4.00;;;3.13;;
11943;SDS011;6031;50.220;10.122;2023-05-17T13:13:32;6.53;;;2.50;;
11943;SDS011;6031;50.220;10.122;2023-05-17T13:15:58;3.47;;;2.23;;
11943;SDS011;6031;50.220;10.122;2023-05-17T13:18:23;7.60;;;2.77;;
11943;SDS011;6031;50.220;10.122;2023-05-17T13:20:49;3.97;;;1.97;;
11943;SDS011;6031;50.220;10.122;2023-05-17T13:23:15;4.43;;;2.20;;
11943;SDS011;6031;50.220;10.122;2023-05-17T13:25:41;4.63;;;1.93;;
11943;SDS011;6031;50.220;10.122;2023-05-17T13:28:06;3.97;;;2.47;;
11943;SDS011;6031;50.220;10.122;2023-05-17T13:30:32;6.07;;;2.27;;
11943;SDS011;6031;50.220;10.122;2023-05-17T13:32:57;4.67;;;2.00;;
11943;SDS011;6031;50.220;10.122;2023-05-17T13:35:23;5.43;;;2.60;;
11943;SDS011;6031;50.220;10.122;2023-05-17T13:37:48;3.13;;;2.10;;
11943;SDS011;6031;50.220;10.122;2023-05-17T13:40:14;4.27;;;2.23;;
11943;SDS011;6031;50.220;10.122;2023-05-17T13:42:40;4.10;;;3.00;;
11943;SDS011;6031;50.220;10.122;2023-05-17T13:45:05;3.50;;;1.73;;
11943;SDS011;6031;50.220;10.122;2023-05-17T13:47:33;2.93;;;2.17;;
11943;SDS011;6031;50.220;10.122;2023-05-17T13:50:00;4.03;;;2.63;;
11943;SDS011;6031;50.220;10.122;2023-05-17T13:52:25;6.17;;;3.23;;
11943;SDS011;6031;50.220;10.122;2023-05-17T13:54:51;20.30;;;8.03;;
11943;SDS011;6031;50.220;10.122;2023-05-17T13:57:17;4.50;;;2.73;;
11943;SDS011;6031;50.220;10.122;2023-05-17T13:59:42;2.90;;;2.33;;
11943;SDS011;6031;50.220;10.122;2023-05-17T14:02:08;3.47;;;2.23;;
11943;SDS011;6031;50.220;10.122;2023-05-17T14:04:34;6.47;;;3.07;;
11943;SDS011;6031;50.220;10.122;2023-05-17T14:06:59;8.37;;;4.03;;
11943;SDS011;6031;50.220;10.122;2023-05-17T14:09:27;6.73;;;3.33;;
11943;SDS011;6031;50.220;10.122;2023-05-17T14:11:56;3.27;;;2.27;;
11943;SDS011;6031;50.220;10.122;2023-05-17T14:14:22;4.30;;;2.43;;
11943;SDS011;6031;50.220;10.122;2023-05-17T14:16:50;4.27;;;2.83;;
11943;SDS011;6031;50.220;10.122;2023-05-17T14:19:15;3.70;;;2.13;;
11943;SDS011;6031;50.220;10.122;2023-05-17T14:21:41;4.10;;;2.40;;
11943;SDS011;6031;50.220;10.122;2023-05-17T14:24:06;3.53;;;2.40;;
11943;SDS011;6031;50.220;10.122;2023-05-17T14:26:32;3.83;;;2.10;;
11943;SDS011;6031;50.220;10.122;2023-05-17T14:28:58;3.97;;;2.00;;
11943;SDS011;6031;50.220;10.122;2023-05-17T14:31:24;6.70;;;1.93;;
11943;SDS011;6031;50.220;10.122;2023-05-17T14:33:50;2.67;;;2.23;;
11943;SDS011;6031;50.220;10.122;2023-05-17T14:36:15;4.40;;;1.80;;
11943;SDS011;6031;50.220;10.122;2023-05-17T14:38:41;3.87;;;2.17;;
11943;SDS011;6031;50.220;10.122;2023-05-17T14:41:06;3.07;;;1.83;;
11943;SDS011;6031;50.220;10.122;2023-05-17T14:43:32;2.77;;;1.90;;
11943;SDS011;6031;50.220;10.122;2023-05-17T14:45:57;7.20;;;2.30;;
11943;SDS011;6031;50.220;10.122;2023-05-17T14:48:23;5.43;;;1.97;;
11943;SDS011;6031;50.220;10.122;2023-05-17T14:50:48;6.60;;;2.83;;
11943;SDS011;6031;50.220;10.122;2023-05-17T14:53:15;3.07;;;1.73;;
11943;SDS011;6031;50.220;10.122;2023-05-17T14:55:41;2.63;;;1.80;;
11943;SDS011;6031;50.220;10.122;2023-05-17T14:58:07;5.27;;;1.80;;
11943;SDS011;6031;50.220;10.122;2023-05-17T15:00:33;3.77;;;2.23;;
11943;SDS011;6031;50.220;10.122;2023-05-17T15:02:58;5.57;;;2.27;;
11943;SDS011;6031;50.220;10.122;2023-05-17T15:05:24;3.80;;;2.50;;
11943;SDS011;6031;50.220;10.122;2023-05-17T15:07:49;4.23;;;2.20;;